sensor_id;sensor_type;location;lat;lon;timestamp;temperature;humidity
32348;DHT22;18821;44.800;10.326;2023-04-28T00:02:02;13.00;1.00
32348;DHT22;18821;44.800;10.326;2023-04-28T00:04:28;13.00;1.00
32348;DHT22;18821;44.800;10.326;2023-04-28T00:06:54;13.00;1.00
32348;DHT22;18821;44.800;10.326;2023-04-28T00:09:20;13.00;1.00
32348;DHT22;18821;44.800;10.326;2023-04-28T00:11:46;13.00;1.00
32348;DHT22;18821;44.800;10.326;2023-04-28T00:14:12;12.90;1.00
32348;DHT22;18821;44.800;10.326;2023-04-28T00:16:38;12.90;1.00
32348;DHT22;18821;44.800;10.326;2023-04-28T00:19:04;12.80;1.00
32348;DHT22;18821;44.800;10.326;2023-04-28T00:21:30;12.80;1.00
32348;DHT22;18821;44.800;10.326;2023-04-28T00:23:56;12.80;1.00
32348;DHT22;18821;44.800;10.326;2023-04-28T00:26:22;12.80;1.00
32348;DHT22;18821;44.800;10.326;2023-04-28T00:28:49;12.80;1.00
32348;DHT22;18821;44.800;10.326;2023-04-28T00:31:15;12.90;1.00
32348;DHT22;18821;44.800;10.326;2023-04-28T00:33:42;12.90;1.00
32348;DHT22;18821;44.800;10.326;2023-04-28T00:36:08;12.90;1.00
32348;DHT22;18821;44.800;10.326;2023-04-28T00:38:36;12.80;1.00
32348;DHT22;18821;44.800;10.326;2023-04-28T00:41:02;12.90;1.00
32348;DHT22;18821;44.800;10.326;2023-04-28T00:43:28;12.80;1.00
32348;DHT22;18821;44.800;10.326;2023-04-28T00:45:54;12.90;1.00
32348;DHT22;18821;44.800;10.326;2023-04-28T00:48:21;12.80;1.00
32348;DHT22;18821;44.800;10.326;2023-04-28T00:50:48;12.80;1.00
32348;DHT22;18821;44.800;10.326;2023-04-28T00:53:14;12.80;1.00
32348;DHT22;18821;44.800;10.326;2023-04-28T00:55:41;12.80;1.00
32348;DHT22;18821;44.800;10.326;2023-04-28T00:58:08;12.70;1.00
32348;DHT22;18821;44.800;10.326;2023-04-28T01:00:34;12.60;1.00
32348;DHT22;18821;44.800;10.326;2023-04-28T01:03:00;12.60;1.00
32348;DHT22;18821;44.800;10.326;2023-04-28T01:05:30;12.50;1.00
32348;DHT22;18821;44.800;10.326;2023-04-28T01:07:56;12.50;1.00
32348;DHT22;18821;44.800;10.326;2023-04-28T01:10:23;12.50;1.00
32348;DHT22;18821;44.800;10.326;2023-04-28T01:12:48;12.40;1.00
32348;DHT22;18821;44.800;10.326;2023-04-28T01:15:17;12.50;1.00
32348;DHT22;18821;44.800;10.326;2023-04-28T01:17:46;12.50;1.00
32348;DHT22;18821;44.800;10.326;2023-04-28T01:20:13;12.50;1.00
32348;DHT22;18821;44.800;10.326;2023-04-28T01:22:39;12.50;1.00
32348;DHT22;18821;44.800;10.326;2023-04-28T01:25:06;12.50;1.00
32348;DHT22;18821;44.800;10.326;2023-04-28T01:27:32;12.50;1.00
32348;DHT22;18821;44.800;10.326;2023-04-28T01:29:59;12.40;1.00
32348;DHT22;18821;44.800;10.326;2023-04-28T01:32:25;12.40;1.00
32348;DHT22;18821;44.800;10.326;2023-04-28T01:34:51;12.40;1.00
32348;DHT22;18821;44.800;10.326;2023-04-28T01:37:17;12.40;1.00
32348;DHT22;18821;44.800;10.326;2023-04-28T01:39:43;12.20;1.00
32348;DHT22;18821;44.800;10.326;2023-04-28T01:42:08;12.20;1.00
32348;DHT22;18821;44.800;10.326;2023-04-28T01:44:34;12.10;1.00
32348;DHT22;18821;44.800;10.326;2023-04-28T01:47:00;12.10;1.00
32348;DHT22;18821;44.800;10.326;2023-04-28T01:49:26;12.00;1.00
32348;DHT22;18821;44.800;10.326;2023-04-28T01:51:52;11.90;1.00
32348;DHT22;18821;44.800;10.326;2023-04-28T01:54:18;11.90;1.00
32348;DHT22;18821;44.800;10.326;2023-04-28T01:56:44;11.70;1.00
32348;DHT22;18821;44.800;10.326;2023-04-28T01:59:13;11.70;1.00
32348;DHT22;18821;44.800;10.326;2023-04-28T02:01:39;11.60;1.00
32348;DHT22;18821;44.800;10.326;2023-04-28T02:04:04;11.60;1.00
32348;DHT22;18821;44.800;10.326;2023-04-28T02:06:34;11.60;1.00
32348;DHT22;18821;44.800;10.326;2023-04-28T02:08:59;11.60;1.00
32348;DHT22;18821;44.800;10.326;2023-04-28T02:11:25;11.60;1.00
32348;DHT22;18821;44.800;10.326;2023-04-28T02:13:55;11.60;1.00
32348;DHT22;18821;44.800;10.326;2023-04-28T02:16:22;11.50;1.00
32348;DHT22;18821;44.800;10.326;2023-04-28T02:18:49;11.40;1.00
32348;DHT22;18821;44.800;10.326;2023-04-28T02:21:15;11.30;1.00
32348;DHT22;18821;44.800;10.326;2023-04-28T02:23:44;11.40;1.00
32348;DHT22;18821;44.800;10.326;2023-04-28T02:26:10;11.40;1.00
32348;DHT22;18821;44.800;10.326;2023-04-28T02:28:36;11.30;1.00
32348;DHT22;18821;44.800;10.326;2023-04-28T02:31:10;11.40;1.00
32348;DHT22;18821;44.800;10.326;2023-04-28T02:33:38;11.40;1.00
32348;DHT22;18821;44.800;10.326;2023-04-28T02:36:05;11.50;1.00
32348;DHT22;18821;44.800;10.326;2023-04-28T02:38:32;11.50;1.00
32348;DHT22;18821;44.800;10.326;2023-04-28T02:40:59;11.60;1.00
32348;DHT22;18821;44.800;10.326;2023-04-28T02:43:32;11.50;1.00
32348;DHT22;18821;44.800;10.326;2023-04-28T02:45:59;11.40;1.00
32348;DHT22;18821;44.800;10.326;2023-04-28T02:48:26;11.40;1.00
32348;DHT22;18821;44.800;10.326;2023-04-28T02:50:52;11.40;1.00
32348;DHT22;18821;44.800;10.326;2023-04-28T02:53:21;11.40;1.00
32348;DHT22;18821;44.800;10.326;2023-04-28T02:55:48;11.40;1.00
32348;DHT22;18821;44.800;10.326;2023-04-28T02:58:14;11.50;1.00
32348;DHT22;18821;44.800;10.326;2023-04-28T03:00:40;11.50;1.00
32348;DHT22;18821;44.800;10.326;2023-04-28T03:03:06;11.50;1.00
32348;DHT22;18821;44.800;10.326;2023-04-28T03:05:32;11.50;1.00
32348;DHT22;18821;44.800;10.326;2023-04-28T03:07:58;11.50;1.00
32348;DHT22;18821;44.800;10.326;2023-04-28T03:10:24;11.50;1.00
32348;DHT22;18821;44.800;10.326;2023-04-28T03:12:50;11.60;1.00
32348;DHT22;18821;44.800;10.326;2023-04-28T03:15:17;11.60;1.00
32348;DHT22;18821;44.800;10.326;2023-04-28T03:17:43;11.60;1.00
32348;DHT22;18821;44.800;10.326;2023-04-28T03:20:09;11.50;1.00
32348;DHT22;18821;44.800;10.326;2023-04-28T03:22:35;11.60;1.00
32348;DHT22;18821;44.800;10.326;2023-04-28T03:25:02;11.50;1.00
32348;DHT22;18821;44.800;10.326;2023-04-28T03:27:32;11.40;1.00
32348;DHT22;18821;44.800;10.326;2023-04-28T03:29:59;11.40;1.00
32348;DHT22;18821;44.800;10.326;2023-04-28T03:32:25;11.40;1.00
32348;DHT22;18821;44.800;10.326;2023-04-28T03:34:51;11.40;1.00
32348;DHT22;18821;44.800;10.326;2023-04-28T03:37:17;11.40;1.00
32348;DHT22;18821;44.800;10.326;2023-04-28T03:39:43;11.40;1.00
32348;DHT22;18821;44.800;10.326;2023-04-28T03:42:10;11.30;1.00
32348;DHT22;18821;44.800;10.326;2023-04-28T03:44:54;11.20;1.00
32348;DHT22;18821;44.800;10.326;2023-04-28T03:47:20;11.20;1.00
32348;DHT22;18821;44.800;10.326;2023-04-28T03:49:46;11.10;1.00
32348;DHT22;18821;44.800;10.326;2023-04-28T03:52:12;11.20;1.00
32348;DHT22;18821;44.800;10.326;2023-04-28T03:54:38;11.20;1.00
32348;DHT22;18821;44.800;10.326;2023-04-28T03:57:07;11.20;1.00
32348;DHT22;18821;44.800;10.326;2023-04-28T03:59:33;11.20;1.00
32348;DHT22;18821;44.800;10.326;2023-04-28T04:01:59;11.20;1.00
32348;DHT22;18821;44.800;10.326;2023-04-28T04:04:26;11.20;1.00
32348;DHT22;18821;44.800;10.326;2023-04-28T04:06:52;11.30;1.00
32348;DHT22;18821;44.800;10.326;2023-04-28T04:09:18;11.30;1.00
32348;DHT22;18821;44.800;10.326;2023-04-28T04:11:44;11.30;1.00
32348;DHT22;18821;44.800;10.326;2023-04-28T04:14:10;11.20;1.00
32348;DHT22;18821;44.800;10.326;2023-04-28T04:16:36;11.10;1.00
32348;DHT22;18821;44.800;10.326;2023-04-28T04:19:03;11.00;1.00
32348;DHT22;18821;44.800;10.326;2023-04-28T04:21:40;11.00;1.00
32348;DHT22;18821;44.800;10.326;2023-04-28T04:24:06;10.90;1.00
32348;DHT22;18821;44.800;10.326;2023-04-28T04:26:32;10.90;1.00
32348;DHT22;18821;44.800;10.326;2023-04-28T04:28:59;10.90;1.00
32348;DHT22;18821;44.800;10.326;2023-04-28T04:31:25;11.00;1.00
32348;DHT22;18821;44.800;10.326;2023-04-28T04:33:51;11.00;1.00
32348;DHT22;18821;44.800;10.326;2023-04-28T04:36:19;11.00;1.00
32348;DHT22;18821;44.800;10.326;2023-04-28T04:38:45;11.00;1.00
32348;DHT22;18821;44.800;10.326;2023-04-28T04:41:15;11.00;1.00
32348;DHT22;18821;44.800;10.326;2023-04-28T04:43:42;11.00;1.00
32348;DHT22;18821;44.800;10.326;2023-04-28T04:46:09;11.00;1.00
32348;DHT22;18821;44.800;10.326;2023-04-28T04:48:35;10.90;1.00
32348;DHT22;18821;44.800;10.326;2023-04-28T04:51:03;11.00;1.00
32348;DHT22;18821;44.800;10.326;2023-04-28T04:53:30;11.00;1.00
32348;DHT22;18821;44.800;10.326;2023-04-28T04:55:56;10.90;1.00
32348;DHT22;18821;44.800;10.326;2023-04-28T04:58:22;11.00;1.00
32348;DHT22;18821;44.800;10.326;2023-04-28T05:01:12;11.00;1.00
32348;DHT22;18821;44.800;10.326;2023-04-28T05:03:38;11.00;1.00
32348;DHT22;18821;44.800;10.326;2023-04-28T05:06:04;11.00;1.00
32348;DHT22;18821;44.800;10.326;2023-04-28T05:08:48;11.10;1.00
32348;DHT22;18821;44.800;10.326;2023-04-28T05:11:14;11.20;1.00
32348;DHT22;18821;44.800;10.326;2023-04-28T05:13:40;11.30;1.00
32348;DHT22;18821;44.800;10.326;2023-04-28T05:16:06;11.30;1.00
32348;DHT22;18821;44.800;10.326;2023-04-28T05:18:48;11.50;1.00
32348;DHT22;18821;44.800;10.326;2023-04-28T05:21:14;11.60;1.00
32348;DHT22;18821;44.800;10.326;2023-04-28T05:23:40;11.80;1.00
32348;DHT22;18821;44.800;10.326;2023-04-28T05:26:06;12.00;1.00
32348;DHT22;18821;44.800;10.326;2023-04-28T05:28:32;12.00;1.00
32348;DHT22;18821;44.800;10.326;2023-04-28T05:31:00;12.00;1.00
32348;DHT22;18821;44.800;10.326;2023-04-28T05:33:26;12.20;1.00
32348;DHT22;18821;44.800;10.326;2023-04-28T05:35:52;12.20;1.00
32348;DHT22;18821;44.800;10.326;2023-04-28T05:38:18;12.20;1.00
32348;DHT22;18821;44.800;10.326;2023-04-28T05:40:47;12.30;1.00
32348;DHT22;18821;44.800;10.326;2023-04-28T05:43:13;12.40;1.00
32348;DHT22;18821;44.800;10.326;2023-04-28T05:45:41;12.40;1.00
32348;DHT22;18821;44.800;10.326;2023-04-28T05:48:07;12.60;1.00
32348;DHT22;18821;44.800;10.326;2023-04-28T05:50:38;12.80;1.00
32348;DHT22;18821;44.800;10.326;2023-04-28T05:53:05;12.90;1.00
32348;DHT22;18821;44.800;10.326;2023-04-28T05:55:33;13.10;1.00
32348;DHT22;18821;44.800;10.326;2023-04-28T05:58:02;13.10;1.00
32348;DHT22;18821;44.800;10.326;2023-04-28T06:00:28;13.20;1.00
32348;DHT22;18821;44.800;10.326;2023-04-28T06:02:57;13.30;1.00
32348;DHT22;18821;44.800;10.326;2023-04-28T06:05:23;13.60;1.00
32348;DHT22;18821;44.800;10.326;2023-04-28T06:07:52;14.20;1.00
32348;DHT22;18821;44.800;10.326;2023-04-28T06:10:20;14.70;99.90
32348;DHT22;18821;44.800;10.326;2023-04-28T06:12:46;15.00;99.90
32348;DHT22;18821;44.800;10.326;2023-04-28T06:15:12;15.10;99.90
32348;DHT22;18821;44.800;10.326;2023-04-28T06:17:38;15.40;99.90
32348;DHT22;18821;44.800;10.326;2023-04-28T06:20:05;15.30;99.90
32348;DHT22;18821;44.800;10.326;2023-04-28T06:22:32;15.30;72.50
32348;DHT22;18821;44.800;10.326;2023-04-28T06:24:58;15.00;99.90
32348;DHT22;18821;44.800;10.326;2023-04-28T06:27:38;15.20;99.90
32348;DHT22;18821;44.800;10.326;2023-04-28T06:30:08;15.40;99.90
32348;DHT22;18821;44.800;10.326;2023-04-28T06:32:38;15.60;17.50
32348;DHT22;18821;44.800;10.326;2023-04-28T06:35:04;15.90;1.00
32348;DHT22;18821;44.800;10.326;2023-04-28T06:37:30;16.20;1.00
32348;DHT22;18821;44.800;10.326;2023-04-28T06:39:57;16.50;1.00
32348;DHT22;18821;44.800;10.326;2023-04-28T06:42:23;16.60;1.00
32348;DHT22;18821;44.800;10.326;2023-04-28T06:44:55;16.10;1.00
32348;DHT22;18821;44.800;10.326;2023-04-28T06:47:21;15.80;1.00
32348;DHT22;18821;44.800;10.326;2023-04-28T06:49:47;15.60;1.00
32348;DHT22;18821;44.800;10.326;2023-04-28T06:52:15;15.40;99.90
32348;DHT22;18821;44.800;10.326;2023-04-28T06:54:41;15.40;99.90
32348;DHT22;18821;44.800;10.326;2023-04-28T06:57:07;15.20;99.90
32348;DHT22;18821;44.800;10.326;2023-04-28T06:59:33;15.30;99.90
32348;DHT22;18821;44.800;10.326;2023-04-28T07:02:00;14.90;1.00
32348;DHT22;18821;44.800;10.326;2023-04-28T07:04:26;14.80;99.90
32348;DHT22;18821;44.800;10.326;2023-04-28T07:06:52;15.00;60.20
32348;DHT22;18821;44.800;10.326;2023-04-28T07:09:18;15.10;1.00
32348;DHT22;18821;44.800;10.326;2023-04-28T07:11:44;15.10;1.00
32348;DHT22;18821;44.800;10.326;2023-04-28T07:14:10;15.20;1.00
32348;DHT22;18821;44.800;10.326;2023-04-28T07:16:36;15.40;1.00
32348;DHT22;18821;44.800;10.326;2023-04-28T07:19:02;15.40;1.00
32348;DHT22;18821;44.800;10.326;2023-04-28T07:21:28;15.20;1.00
32348;DHT22;18821;44.800;10.326;2023-04-28T07:23:57;15.40;1.00
32348;DHT22;18821;44.800;10.326;2023-04-28T07:26:23;15.50;1.00
32348;DHT22;18821;44.800;10.326;2023-04-28T07:28:49;15.50;1.00
32348;DHT22;18821;44.800;10.326;2023-04-28T07:31:16;15.70;1.00
32348;DHT22;18821;44.800;10.326;2023-04-28T07:33:42;15.90;99.90
32348;DHT22;18821;44.800;10.326;2023-04-28T07:36:08;15.80;1.00
32348;DHT22;18821;44.800;10.326;2023-04-28T07:38:34;15.70;1.00
32348;DHT22;18821;44.800;10.326;2023-04-28T07:41:02;15.70;75.80
32348;DHT22;18821;44.800;10.326;2023-04-28T07:43:28;16.10;49.70
32348;DHT22;18821;44.800;10.326;2023-04-28T07:45:55;16.30;99.90
32348;DHT22;18821;44.800;10.326;2023-04-28T07:48:21;16.20;99.90
32348;DHT22;18821;44.800;10.326;2023-04-28T07:50:47;16.10;99.90
32348;DHT22;18821;44.800;10.326;2023-04-28T07:53:13;16.10;99.90
32348;DHT22;18821;44.800;10.326;2023-04-28T07:55:39;16.00;99.90
32348;DHT22;18821;44.800;10.326;2023-04-28T07:58:09;16.10;99.90
32348;DHT22;18821;44.800;10.326;2023-04-28T08:00:35;16.40;99.90
32348;DHT22;18821;44.800;10.326;2023-04-28T08:03:01;16.20;99.90
32348;DHT22;18821;44.800;10.326;2023-04-28T08:05:27;16.10;1.00
32348;DHT22;18821;44.800;10.326;2023-04-28T08:07:53;16.20;1.00
32348;DHT22;18821;44.800;10.326;2023-04-28T08:10:19;16.50;99.90
32348;DHT22;18821;44.800;10.326;2023-04-28T08:12:47;16.70;99.90
32348;DHT22;18821;44.800;10.326;2023-04-28T08:15:13;16.70;99.90
32348;DHT22;18821;44.800;10.326;2023-04-28T08:17:39;16.90;99.90
32348;DHT22;18821;44.800;10.326;2023-04-28T08:20:05;17.20;99.90
32348;DHT22;18821;44.800;10.326;2023-04-28T08:22:32;17.50;99.90
32348;DHT22;18821;44.800;10.326;2023-04-28T08:24:57;17.70;99.90
32348;DHT22;18821;44.800;10.326;2023-04-28T08:27:23;17.40;99.90
32348;DHT22;18821;44.800;10.326;2023-04-28T08:29:50;17.40;99.90
32348;DHT22;18821;44.800;10.326;2023-04-28T08:32:17;17.30;99.90
32348;DHT22;18821;44.800;10.326;2023-04-28T08:34:44;17.60;99.90
32348;DHT22;18821;44.800;10.326;2023-04-28T08:37:10;17.90;99.90
32348;DHT22;18821;44.800;10.326;2023-04-28T08:39:36;18.20;99.90
32348;DHT22;18821;44.800;10.326;2023-04-28T08:42:02;18.30;99.90
32348;DHT22;18821;44.800;10.326;2023-04-28T08:44:41;18.50;99.90
32348;DHT22;18821;44.800;10.326;2023-04-28T08:47:12;18.20;99.90
32348;DHT22;18821;44.800;10.326;2023-04-28T08:49:41;18.10;99.90
32348;DHT22;18821;44.800;10.326;2023-04-28T08:52:12;17.90;99.90
32348;DHT22;18821;44.800;10.326;2023-04-28T08:54:41;17.70;99.90
32348;DHT22;18821;44.800;10.326;2023-04-28T08:57:09;18.10;99.90
32348;DHT22;18821;44.800;10.326;2023-04-28T08:59:39;18.40;99.90
32348;DHT22;18821;44.800;10.326;2023-04-28T09:02:09;18.70;99.90
32348;DHT22;18821;44.800;10.326;2023-04-28T09:04:35;18.80;99.90
32348;DHT22;18821;44.800;10.326;2023-04-28T09:07:01;19.00;99.90
32348;DHT22;18821;44.800;10.326;2023-04-28T09:09:28;19.30;9.50
32348;DHT22;18821;44.800;10.326;2023-04-28T09:12:00;19.30;1.00
32348;DHT22;18821;44.800;10.326;2023-04-28T09:14:31;19.20;1.00
32348;DHT22;18821;44.800;10.326;2023-04-28T09:16:58;18.90;99.90
32348;DHT22;18821;44.800;10.326;2023-04-28T09:19:27;19.10;65.20
32348;DHT22;18821;44.800;10.326;2023-04-28T09:21:57;19.20;91.60
32348;DHT22;18821;44.800;10.326;2023-04-28T09:27:04;19.50;1.00
32348;DHT22;18821;44.800;10.326;2023-04-28T09:29:31;19.40;99.90
32348;DHT22;18821;44.800;10.326;2023-04-28T09:32:17;18.90;99.90
32348;DHT22;18821;44.800;10.326;2023-04-28T09:34:53;18.80;99.90
32348;DHT22;18821;44.800;10.326;2023-04-28T09:37:23;18.70;99.90
32348;DHT22;18821;44.800;10.326;2023-04-28T09:39:52;19.00;99.90
32348;DHT22;18821;44.800;10.326;2023-04-28T09:45:08;19.30;99.90
32348;DHT22;18821;44.800;10.326;2023-04-28T09:47:39;19.10;99.90
32348;DHT22;18821;44.800;10.326;2023-04-28T09:50:07;19.20;99.90
32348;DHT22;18821;44.800;10.326;2023-04-28T09:52:40;19.40;99.90
32348;DHT22;18821;44.800;10.326;2023-04-28T09:55:09;19.50;99.90
32348;DHT22;18821;44.800;10.326;2023-04-28T09:57:38;19.80;90.30
32348;DHT22;18821;44.800;10.326;2023-04-28T10:00:06;19.90;33.80
32348;DHT22;18821;44.800;10.326;2023-04-28T10:02:35;19.70;69.00
32348;DHT22;18821;44.800;10.326;2023-04-28T10:05:01;19.20;20.60
32348;DHT22;18821;44.800;10.326;2023-04-28T10:07:33;19.10;99.90
32348;DHT22;18821;44.800;10.326;2023-04-28T10:10:02;19.30;90.40
32348;DHT22;18821;44.800;10.326;2023-04-28T10:12:31;19.40;12.70
32348;DHT22;18821;44.800;10.326;2023-04-28T10:14:59;19.80;1.00
32348;DHT22;18821;44.800;10.326;2023-04-28T10:17:25;20.00;1.00
32348;DHT22;18821;44.800;10.326;2023-04-28T10:19:54;20.20;99.90
32348;DHT22;18821;44.800;10.326;2023-04-28T10:27:39;21.00;99.90
32348;DHT22;18821;44.800;10.326;2023-04-28T10:30:13;20.60;99.90
32348;DHT22;18821;44.800;10.326;2023-04-28T10:32:40;20.40;99.90
32348;DHT22;18821;44.800;10.326;2023-04-28T10:38:10;20.60;1.00
32348;DHT22;18821;44.800;10.326;2023-04-28T10:56:15;21.00;1.00
32348;DHT22;18821;44.800;10.326;2023-04-28T10:58:44;20.80;99.90
32348;DHT22;18821;44.800;10.326;2023-04-28T11:01:27;20.90;99.90
32348;DHT22;18821;44.800;10.326;2023-04-28T11:03:58;21.20;99.90
32348;DHT22;18821;44.800;10.326;2023-04-28T11:06:29;21.40;1.00
32348;DHT22;18821;44.800;10.326;2023-04-28T11:14:35;20.80;51.10
32348;DHT22;18821;44.800;10.326;2023-04-28T11:19:42;21.00;90.00
32348;DHT22;18821;44.800;10.326;2023-04-28T11:22:20;21.20;1.00
32348;DHT22;18821;44.800;10.326;2023-04-28T11:25:00;21.20;1.00
32348;DHT22;18821;44.800;10.326;2023-04-28T11:27:29;21.00;1.00
32348;DHT22;18821;44.800;10.326;2023-04-28T11:29:55;20.90;17.00
32348;DHT22;18821;44.800;10.326;2023-04-28T11:32:32;20.80;1.00
32348;DHT22;18821;44.800;10.326;2023-04-28T11:34:58;20.90;1.00
32348;DHT22;18821;44.800;10.326;2023-04-28T11:37:24;20.80;1.00
32348;DHT22;18821;44.800;10.326;2023-04-28T11:39:52;20.30;1.00
32348;DHT22;18821;44.800;10.326;2023-04-28T11:42:18;20.20;1.00
32348;DHT22;18821;44.800;10.326;2023-04-28T11:44:51;20.20;1.00
32348;DHT22;18821;44.800;10.326;2023-04-28T11:47:31;20.80;1.00
32348;DHT22;18821;44.800;10.326;2023-04-28T11:49:57;21.00;45.20
32348;DHT22;18821;44.800;10.326;2023-04-28T11:52:23;21.10;1.00
32348;DHT22;18821;44.800;10.326;2023-04-28T11:54:56;21.10;1.00
32348;DHT22;18821;44.800;10.326;2023-04-28T11:57:22;21.40;99.90
32348;DHT22;18821;44.800;10.326;2023-04-28T11:59:49;21.90;99.90
32348;DHT22;18821;44.800;10.326;2023-04-28T12:02:22;22.30;8.40
32348;DHT22;18821;44.800;10.326;2023-04-28T12:04:48;22.50;1.00
32348;DHT22;18821;44.800;10.326;2023-04-28T12:07:17;22.80;1.00
32348;DHT22;18821;44.800;10.326;2023-04-28T12:09:45;22.90;99.90
32348;DHT22;18821;44.800;10.326;2023-04-28T12:14:59;23.40;63.80
32348;DHT22;18821;44.800;10.326;2023-04-28T12:17:41;23.30;1.00
32348;DHT22;18821;44.800;10.326;2023-04-28T12:22:49;22.90;14.80
32348;DHT22;18821;44.800;10.326;2023-04-28T12:25:17;23.00;1.00
32348;DHT22;18821;44.800;10.326;2023-04-28T12:28:04;23.00;1.00
32348;DHT22;18821;44.800;10.326;2023-04-28T12:30:33;23.20;1.00
32348;DHT22;18821;44.800;10.326;2023-04-28T12:33:00;23.10;1.00
32348;DHT22;18821;44.800;10.326;2023-04-28T12:35:27;22.70;1.00
32348;DHT22;18821;44.800;10.326;2023-04-28T12:37:53;22.80;1.00
32348;DHT22;18821;44.800;10.326;2023-04-28T12:40:21;22.40;1.00
32348;DHT22;18821;44.800;10.326;2023-04-28T12:42:47;22.10;1.00
32348;DHT22;18821;44.800;10.326;2023-04-28T12:45:13;21.90;1.00
32348;DHT22;18821;44.800;10.326;2023-04-28T12:47:41;22.20;1.00
32348;DHT22;18821;44.800;10.326;2023-04-28T12:50:07;21.80;1.00
32348;DHT22;18821;44.800;10.326;2023-04-28T12:52:33;22.20;9.10
32348;DHT22;18821;44.800;10.326;2023-04-28T12:55:01;22.50;8.70
32348;DHT22;18821;44.800;10.326;2023-04-28T12:57:28;22.80;1.00
32348;DHT22;18821;44.800;10.326;2023-04-28T12:59:54;22.80;1.00
32348;DHT22;18821;44.800;10.326;2023-04-28T13:02:24;22.80;1.00
32348;DHT22;18821;44.800;10.326;2023-04-28T13:04:50;22.80;1.00
32348;DHT22;18821;44.800;10.326;2023-04-28T13:07:17;22.90;1.00
32348;DHT22;18821;44.800;10.326;2023-04-28T13:09:43;22.70;1.00
32348;DHT22;18821;44.800;10.326;2023-04-28T13:12:10;22.50;1.00
32348;DHT22;18821;44.800;10.326;2023-04-28T13:14:39;22.50;1.00
32348;DHT22;18821;44.800;10.326;2023-04-28T13:17:05;22.60;1.00
32348;DHT22;18821;44.800;10.326;2023-04-28T13:19:31;22.60;1.00
32348;DHT22;18821;44.800;10.326;2023-04-28T13:21:59;22.80;1.00
32348;DHT22;18821;44.800;10.326;2023-04-28T13:24:25;22.80;1.00
32348;DHT22;18821;44.800;10.326;2023-04-28T13:26:51;23.10;1.00
32348;DHT22;18821;44.800;10.326;2023-04-28T13:29:17;23.10;1.00
32348;DHT22;18821;44.800;10.326;2023-04-28T13:31:43;23.10;1.00
32348;DHT22;18821;44.800;10.326;2023-04-28T13:34:09;23.20;1.00
32348;DHT22;18821;44.800;10.326;2023-04-28T13:36:41;23.30;1.00
32348;DHT22;18821;44.800;10.326;2023-04-28T13:39:07;23.00;1.00
32348;DHT22;18821;44.800;10.326;2023-04-28T13:41:36;23.20;1.00
32348;DHT22;18821;44.800;10.326;2023-04-28T13:44:02;23.00;1.00
32348;DHT22;18821;44.800;10.326;2023-04-28T13:46:28;23.10;1.00
32348;DHT22;18821;44.800;10.326;2023-04-28T13:48:54;22.30;1.00
32348;DHT22;18821;44.800;10.326;2023-04-28T13:51:20;22.50;1.00
32348;DHT22;18821;44.800;10.326;2023-04-28T13:53:47;22.60;1.00
32348;DHT22;18821;44.800;10.326;2023-04-28T13:56:13;22.50;1.00
32348;DHT22;18821;44.800;10.326;2023-04-28T13:58:39;22.70;1.00
32348;DHT22;18821;44.800;10.326;2023-04-28T14:01:05;23.00;1.00
32348;DHT22;18821;44.800;10.326;2023-04-28T14:03:32;23.10;1.00
32348;DHT22;18821;44.800;10.326;2023-04-28T14:05:59;23.00;1.00
32348;DHT22;18821;44.800;10.326;2023-04-28T14:08:26;22.90;1.00
32348;DHT22;18821;44.800;10.326;2023-04-28T14:10:54;23.00;1.00
32348;DHT22;18821;44.800;10.326;2023-04-28T14:13:20;23.30;1.00
32348;DHT22;18821;44.800;10.326;2023-04-28T14:15:46;23.30;99.90
32348;DHT22;18821;44.800;10.326;2023-04-28T14:18:12;23.10;99.90
32348;DHT22;18821;44.800;10.326;2023-04-28T14:20:39;23.10;99.90
32348;DHT22;18821;44.800;10.326;2023-04-28T14:23:05;22.90;99.90
32348;DHT22;18821;44.800;10.326;2023-04-28T14:25:30;22.50;99.90
32348;DHT22;18821;44.800;10.326;2023-04-28T14:27:56;22.50;1.00
32348;DHT22;18821;44.800;10.326;2023-04-28T14:30:23;22.60;1.00
32348;DHT22;18821;44.800;10.326;2023-04-28T14:32:49;22.80;1.00
32348;DHT22;18821;44.800;10.326;2023-04-28T14:35:16;23.00;1.00
32348;DHT22;18821;44.800;10.326;2023-04-28T14:37:42;23.20;1.00
32348;DHT22;18821;44.800;10.326;2023-04-28T14:40:09;23.00;99.90
32348;DHT22;18821;44.800;10.326;2023-04-28T14:42:35;22.50;99.90
32348;DHT22;18821;44.800;10.326;2023-04-28T14:45:05;21.80;1.00
32348;DHT22;18821;44.800;10.326;2023-04-28T14:47:32;21.80;1.00
32348;DHT22;18821;44.800;10.326;2023-04-28T14:49:59;22.10;1.00
32348;DHT22;18821;44.800;10.326;2023-04-28T14:52:25;21.90;1.00
32348;DHT22;18821;44.800;10.326;2023-04-28T14:54:54;21.60;1.00
32348;DHT22;18821;44.800;10.326;2023-04-28T14:57:21;21.50;1.00
32348;DHT22;18821;44.800;10.326;2023-04-28T14:59:47;21.60;1.00
32348;DHT22;18821;44.800;10.326;2023-04-28T15:02:12;21.70;1.00
32348;DHT22;18821;44.800;10.326;2023-04-28T15:04:39;21.90;1.00
32348;DHT22;18821;44.800;10.326;2023-04-28T15:07:05;22.20;1.00
32348;DHT22;18821;44.800;10.326;2023-04-28T15:09:33;22.50;1.00
32348;DHT22;18821;44.800;10.326;2023-04-28T15:12:01;22.70;1.00
32348;DHT22;18821;44.800;10.326;2023-04-28T15:14:28;22.80;1.00
32348;DHT22;18821;44.800;10.326;2023-04-28T15:16:54;22.80;1.00
32348;DHT22;18821;44.800;10.326;2023-04-28T15:19:20;22.80;1.00
32348;DHT22;18821;44.800;10.326;2023-04-28T15:21:46;23.00;1.00
32348;DHT22;18821;44.800;10.326;2023-04-28T15:24:13;23.10;1.00
32348;DHT22;18821;44.800;10.326;2023-04-28T15:26:38;22.80;1.00
32348;DHT22;18821;44.800;10.326;2023-04-28T15:29:04;22.60;1.00
32348;DHT22;18821;44.800;10.326;2023-04-28T15:31:30;22.70;1.00
32348;DHT22;18821;44.800;10.326;2023-04-28T15:33:56;22.80;1.00
32348;DHT22;18821;44.800;10.326;2023-04-28T15:36:22;22.90;1.00
32348;DHT22;18821;44.800;10.326;2023-04-28T15:38:49;22.80;1.00
32348;DHT22;18821;44.800;10.326;2023-04-28T15:41:17;22.90;1.00
32348;DHT22;18821;44.800;10.326;2023-04-28T15:43:43;22.60;1.00
32348;DHT22;18821;44.800;10.326;2023-04-28T15:46:11;22.30;1.00
32348;DHT22;18821;44.800;10.326;2023-04-28T15:48:42;22.20;1.00
32348;DHT22;18821;44.800;10.326;2023-04-28T15:51:09;22.40;1.00
32348;DHT22;18821;44.800;10.326;2023-04-28T15:53:35;22.50;1.00
32348;DHT22;18821;44.800;10.326;2023-04-28T15:56:02;22.30;1.00
32348;DHT22;18821;44.800;10.326;2023-04-28T15:58:29;22.20;1.00
32348;DHT22;18821;44.800;10.326;2023-04-28T16:00:55;22.00;1.00
32348;DHT22;18821;44.800;10.326;2023-04-28T16:03:24;22.10;1.00
32348;DHT22;18821;44.800;10.326;2023-04-28T16:05:52;22.00;1.00
32348;DHT22;18821;44.800;10.326;2023-04-28T16:08:19;22.10;1.00
32348;DHT22;18821;44.800;10.326;2023-04-28T16:10:49;22.00;1.00
32348;DHT22;18821;44.800;10.326;2023-04-28T16:13:15;22.00;1.00